Jasper, Michigan
Current Conditions -  °F | °C
As of 4:17 PM on Sunday 23 Nov 2014 (Local Time) from KADG Reporting Station
Moderate Rain Moderate Rain  
Wind Chill: 53°   Ceiling: 2600
Heat Index: 53°   Visibility: 1.7mi
Dew Point: 48°   Wind: 12mph
Humidity: 83%   Direction: 160°SSE
Pressure: 29.67"   Gusts: NA
Location:  41.79°N, 84.04°W
Report Text: KADG 232117Z AUTO 16010KT 1 3/4SM RA BKN026 BKN033 OVC050 12/09 A2967 RMK AO2 RAB05 P0004 T01170089
Loading
Personal Weather Stations






























Interactive Weather Map New forecast layout! Learn more

10-Day Weather Forecast

Advertisements
Track Severe Weather on mobile